sensor_id;sensor_type;location;lat;lon;timestamp;pressure;altitude;pressure_sealevel;temperature;humidity
2294;BME280;1155;42.644;23.264;2023-04-25T00:03:00;60140.56;;;-140.67;100.00
2294;BME280;1155;42.644;23.264;2023-04-25T00:05:56;60154.91;;;-140.67;100.00
2294;BME280;1155;42.644;23.264;2023-04-25T00:08:29;60163.09;;;-140.67;100.00
2294;BME280;1155;42.644;23.264;2023-04-25T00:10:58;60138.50;;;-140.67;100.00
2294;BME280;1155;42.644;23.264;2023-04-25T00:13:28;60173.31;;;-140.67;100.00
2294;BME280;1155;42.644;23.264;2023-04-25T00:16:03;60193.81;;;-140.67;100.00
2294;BME280;1155;42.644;23.264;2023-04-25T00:18:29;60165.13;;;-140.67;100.00
2294;BME280;1155;42.644;23.264;2023-04-25T00:20:58;60136.47;;;-140.67;100.00
2294;BME280;1155;42.644;23.264;2023-04-25T00:23:25;60150.81;;;-140.67;100.00
2294;BME280;1155;42.644;23.264;2023-04-25T00:25:52;60169.22;;;-140.67;100.00
2294;BME280;1155;42.644;23.264;2023-04-25T00:28:19;60177.41;;;-140.67;100.00
2294;BME280;1155;42.644;23.264;2023-04-25T00:30:45;60154.91;;;-140.67;100.00
2294;BME280;1155;42.644;23.264;2023-04-25T00:33:14;60167.19;;;-140.67;100.00
2294;BME280;1155;42.644;23.264;2023-04-25T00:35:40;60140.56;;;-140.67;100.00
2294;BME280;1155;42.644;23.264;2023-04-25T00:38:07;60167.19;;;-140.67;100.00
2294;BME280;1155;42.644;23.264;2023-04-25T00:40:34;60169.22;;;-140.67;100.00
2294;BME280;1155;42.644;23.264;2023-04-25T00:43:01;60146.72;;;-140.67;100.00
2294;BME280;1155;42.644;23.264;2023-04-25T00:45:31;60159.00;;;-140.67;100.00
2294;BME280;1155;42.644;23.264;2023-04-25T00:47:58;60171.28;;;-140.67;100.00
2294;BME280;1155;42.644;23.264;2023-04-25T00:50:26;60159.00;;;-140.67;100.00
2294;BME280;1155;42.644;23.264;2023-04-25T00:52:53;60199.94;;;-140.67;100.00
2294;BME280;1155;42.644;23.264;2023-04-25T00:55:22;60142.59;;;-140.67;100.00
2294;BME280;1155;42.644;23.264;2023-04-25T00:57:49;60171.28;;;-140.67;100.00
2294;BME280;1155;42.644;23.264;2023-04-25T01:00:17;60171.28;;;-140.67;100.00
2294;BME280;1155;42.644;23.264;2023-04-25T01:02:44;60152.84;;;-140.67;100.00
2294;BME280;1155;42.644;23.264;2023-04-25T01:05:11;60152.84;;;-140.67;100.00
2294;BME280;1155;42.644;23.264;2023-04-25T01:07:40;60185.59;;;-140.67;100.00
2294;BME280;1155;42.644;23.264;2023-04-25T01:10:08;60144.66;;;-140.67;100.00
2294;BME280;1155;42.644;23.264;2023-04-25T01:12:35;60177.41;;;-140.67;100.00
2294;BME280;1155;42.644;23.264;2023-04-25T01:15:02;60173.31;;;-140.67;100.00
2294;BME280;1155;42.644;23.264;2023-04-25T01:17:29;60159.00;;;-140.67;100.00
2294;BME280;1155;42.644;23.264;2023-04-25T01:19:57;60167.19;;;-140.67;100.00
2294;BME280;1155;42.644;23.264;2023-04-25T01:22:25;60179.47;;;-140.67;100.00
2294;BME280;1155;42.644;23.264;2023-04-25T01:24:52;60163.09;;;-140.67;100.00
2294;BME280;1155;42.644;23.264;2023-04-25T01:27:19;60177.41;;;-140.67;100.00
2294;BME280;1155;42.644;23.264;2023-04-25T01:29:49;60154.91;;;-140.67;100.00
2294;BME280;1155;42.644;23.264;2023-04-25T01:32:19;60140.56;;;-140.67;100.00
2294;BME280;1155;42.644;23.264;2023-04-25T01:34:46;60163.09;;;-140.67;100.00
2294;BME280;1155;42.644;23.264;2023-04-25T01:37:13;60152.84;;;-140.67;100.00
2294;BME280;1155;42.644;23.264;2023-04-25T01:39:41;60156.94;;;-140.67;100.00
2294;BME280;1155;42.644;23.264;2023-04-25T01:42:08;60161.03;;;-140.67;100.00
2294;BME280;1155;42.644;23.264;2023-04-25T01:44:35;60167.19;;;-140.67;100.00
2294;BME280;1155;42.644;23.264;2023-04-25T01:47:05;60150.81;;;-140.67;100.00
2294;BME280;1155;42.644;23.264;2023-04-25T01:49:32;60150.81;;;-140.67;100.00
2294;BME280;1155;42.644;23.264;2023-04-25T01:51:59;60171.28;;;-140.67;100.00
2294;BME280;1155;42.644;23.264;2023-04-25T01:54:26;60154.91;;;-140.67;100.00
2294;BME280;1155;42.644;23.264;2023-04-25T01:56:57;60171.28;;;-140.67;100.00
2294;BME280;1155;42.644;23.264;2023-04-25T01:59:24;60193.81;;;-140.67;100.00
2294;BME280;1155;42.644;23.264;2023-04-25T02:01:51;60159.00;;;-140.67;100.00
2294;BME280;1155;42.644;23.264;2023-04-25T02:04:18;60171.28;;;-140.67;100.00
2294;BME280;1155;42.644;23.264;2023-04-25T02:06:45;60156.94;;;-140.67;100.00
2294;BME280;1155;42.644;23.264;2023-04-25T02:09:11;60183.56;;;-140.67;100.00
2294;BME280;1155;42.644;23.264;2023-04-25T02:11:40;60146.72;;;-140.67;100.00
2294;BME280;1155;42.644;23.264;2023-04-25T02:14:11;60152.84;;;-140.67;100.00
2294;BME280;1155;42.644;23.264;2023-04-25T02:16:38;60165.13;;;-140.67;100.00
2294;BME280;1155;42.644;23.264;2023-04-25T02:19:05;60154.91;;;-140.67;100.00
2294;BME280;1155;42.644;23.264;2023-04-25T02:21:34;60197.91;;;-140.67;100.00
2294;BME280;1155;42.644;23.264;2023-04-25T02:24:02;60183.56;;;-140.67;100.00
2294;BME280;1155;42.644;23.264;2023-04-25T02:26:31;60134.41;;;-140.67;100.00
2294;BME280;1155;42.644;23.264;2023-04-25T02:28:58;60163.09;;;-140.67;100.00
2294;BME280;1155;42.644;23.264;2023-04-25T02:31:28;60159.00;;;-140.67;100.00
2294;BME280;1155;42.644;23.264;2023-04-25T02:33:54;60165.13;;;-140.67;100.00
2294;BME280;1155;42.644;23.264;2023-04-25T02:36:21;60187.66;;;-140.67;100.00
2294;BME280;1155;42.644;23.264;2023-04-25T02:38:49;60163.09;;;-140.67;100.00
2294;BME280;1155;42.644;23.264;2023-04-25T02:41:16;60167.19;;;-140.67;100.00
2294;BME280;1155;42.644;23.264;2023-04-25T02:43:43;60177.41;;;-140.67;100.00
2294;BME280;1155;42.644;23.264;2023-04-25T02:46:10;60171.28;;;-140.67;100.00
2294;BME280;1155;42.644;23.264;2023-04-25T02:48:38;60159.00;;;-140.67;100.00
2294;BME280;1155;42.644;23.264;2023-04-25T02:51:04;60181.50;;;-140.67;100.00
2294;BME280;1155;42.644;23.264;2023-04-25T02:53:31;60189.72;;;-140.67;100.00
2294;BME280;1155;42.644;23.264;2023-04-25T02:55:58;60163.09;;;-140.67;100.00
2294;BME280;1155;42.644;23.264;2023-04-25T02:58:25;60161.03;;;-140.67;100.00
2294;BME280;1155;42.644;23.264;2023-04-25T03:00:52;60154.91;;;-140.67;100.00
2294;BME280;1155;42.644;23.264;2023-04-25T03:03:19;60193.81;;;-140.67;100.00
2294;BME280;1155;42.644;23.264;2023-04-25T03:05:48;60156.94;;;-140.67;100.00
2294;BME280;1155;42.644;23.264;2023-04-25T03:08:16;60167.19;;;-140.67;100.00
2294;BME280;1155;42.644;23.264;2023-04-25T03:10:43;60171.28;;;-140.67;100.00
2294;BME280;1155;42.644;23.264;2023-04-25T03:13:12;60163.09;;;-140.67;100.00
2294;BME280;1155;42.644;23.264;2023-04-25T03:15:39;60179.47;;;-140.67;100.00
2294;BME280;1155;42.644;23.264;2023-04-25T03:18:06;60167.19;;;-140.67;100.00
2294;BME280;1155;42.644;23.264;2023-04-25T03:20:33;60167.19;;;-140.67;100.00
2294;BME280;1155;42.644;23.264;2023-04-25T03:23:01;60189.72;;;-140.67;100.00
2294;BME280;1155;42.644;23.264;2023-04-25T03:25:28;60148.75;;;-140.67;100.00
2294;BME280;1155;42.644;23.264;2023-04-25T03:27:55;60185.59;;;-140.67;100.00
2294;BME280;1155;42.644;23.264;2023-04-25T03:30:22;60169.22;;;-140.67;100.00
2294;BME280;1155;42.644;23.264;2023-04-25T03:32:48;60189.72;;;-140.67;100.00
2294;BME280;1155;42.644;23.264;2023-04-25T03:35:15;60165.13;;;-140.67;100.00
2294;BME280;1155;42.644;23.264;2023-04-25T03:37:42;60169.22;;;-140.67;100.00
2294;BME280;1155;42.644;23.264;2023-04-25T03:40:12;60171.28;;;-140.67;100.00
2294;BME280;1155;42.644;23.264;2023-04-25T03:42:39;60169.22;;;-140.67;100.00
2294;BME280;1155;42.644;23.264;2023-04-25T03:45:07;60146.72;;;-140.67;100.00
2294;BME280;1155;42.644;23.264;2023-04-25T03:47:34;60163.09;;;-140.67;100.00
2294;BME280;1155;42.644;23.264;2023-04-25T03:50:01;60142.59;;;-140.67;100.00
2294;BME280;1155;42.644;23.264;2023-04-25T03:52:28;60169.22;;;-140.67;100.00
2294;BME280;1155;42.644;23.264;2023-04-25T03:54:55;60169.22;;;-140.67;100.00
2294;BME280;1155;42.644;23.264;2023-04-25T03:57:23;60142.59;;;-140.67;100.00
2294;BME280;1155;42.644;23.264;2023-04-25T03:59:50;60169.22;;;-140.67;100.00
2294;BME280;1155;42.644;23.264;2023-04-25T04:02:17;60159.00;;;-140.67;100.00
2294;BME280;1155;42.644;23.264;2023-04-25T04:04:44;60161.03;;;-140.67;100.00
2294;BME280;1155;42.644;23.264;2023-04-25T04:07:11;60167.19;;;-140.67;100.00
2294;BME280;1155;42.644;23.264;2023-04-25T04:09:38;60159.00;;;-140.67;100.00
2294;BME280;1155;42.644;23.264;2023-04-25T04:12:05;60148.75;;;-140.67;100.00
2294;BME280;1155;42.644;23.264;2023-04-25T04:14:34;60167.19;;;-140.67;100.00
2294;BME280;1155;42.644;23.264;2023-04-25T04:17:01;60206.09;;;-140.67;100.00
2294;BME280;1155;42.644;23.264;2023-04-25T04:19:27;60171.28;;;-140.67;100.00
2294;BME280;1155;42.644;23.264;2023-04-25T04:21:54;60163.09;;;-140.67;100.00
2294;BME280;1155;42.644;23.264;2023-04-25T04:24:21;60150.81;;;-140.67;100.00
2294;BME280;1155;42.644;23.264;2023-04-25T04:26:48;60159.00;;;-140.67;100.00
2294;BME280;1155;42.644;23.264;2023-04-25T04:29:16;60171.28;;;-140.67;100.00
2294;BME280;1155;42.644;23.264;2023-04-25T04:31:48;60150.81;;;-140.67;100.00
2294;BME280;1155;42.644;23.264;2023-04-25T04:34:16;60163.09;;;-140.67;100.00
2294;BME280;1155;42.644;23.264;2023-04-25T04:36:43;60179.47;;;-140.67;100.00
2294;BME280;1155;42.644;23.264;2023-04-25T04:39:12;60152.84;;;-140.67;100.00
2294;BME280;1155;42.644;23.264;2023-04-25T04:41:38;60150.81;;;-140.67;100.00
2294;BME280;1155;42.644;23.264;2023-04-25T04:44:06;60154.91;;;-140.67;100.00
2294;BME280;1155;42.644;23.264;2023-04-25T04:46:34;60165.13;;;-140.67;100.00
2294;BME280;1155;42.644;23.264;2023-04-25T04:49:08;60146.72;;;-140.67;100.00
2294;BME280;1155;42.644;23.264;2023-04-25T04:51:35;60150.81;;;-140.67;100.00
2294;BME280;1155;42.644;23.264;2023-04-25T04:54:02;60148.75;;;-140.67;100.00
2294;BME280;1155;42.644;23.264;2023-04-25T04:56:30;60146.72;;;-140.67;100.00
2294;BME280;1155;42.644;23.264;2023-04-25T04:58:57;60179.47;;;-140.67;100.00
2294;BME280;1155;42.644;23.264;2023-04-25T05:01:24;60150.81;;;-140.67;100.00
2294;BME280;1155;42.644;23.264;2023-04-25T05:03:52;60163.09;;;-140.67;100.00
2294;BME280;1155;42.644;23.264;2023-04-25T05:06:20;60163.09;;;-140.67;100.00
2294;BME280;1155;42.644;23.264;2023-04-25T05:08:47;60154.91;;;-140.67;100.00
2294;BME280;1155;42.644;23.264;2023-04-25T05:11:14;60156.94;;;-140.67;100.00
2294;BME280;1155;42.644;23.264;2023-04-25T05:13:43;60152.84;;;-140.67;100.00
2294;BME280;1155;42.644;23.264;2023-04-25T05:16:11;60152.84;;;-140.67;100.00
2294;BME280;1155;42.644;23.264;2023-04-25T05:18:39;60134.41;;;-140.67;100.00
2294;BME280;1155;42.644;23.264;2023-04-25T05:21:06;60140.56;;;-140.67;100.00
2294;BME280;1155;42.644;23.264;2023-04-25T05:23:34;60150.81;;;-140.67;100.00
2294;BME280;1155;42.644;23.264;2023-04-25T05:26:01;60167.19;;;-140.67;100.00
2294;BME280;1155;42.644;23.264;2023-04-25T05:28:28;60159.00;;;-140.67;100.00
2294;BME280;1155;42.644;23.264;2023-04-25T05:30:56;60163.09;;;-140.67;100.00
2294;BME280;1155;42.644;23.264;2023-04-25T05:33:23;60146.72;;;-140.67;100.00
2294;BME280;1155;42.644;23.264;2023-04-25T05:35:53;60167.19;;;-140.67;100.00
2294;BME280;1155;42.644;23.264;2023-04-25T05:38:20;60173.31;;;-140.67;100.00
2294;BME280;1155;42.644;23.264;2023-04-25T05:40:48;60163.09;;;-140.67;100.00
2294;BME280;1155;42.644;23.264;2023-04-25T05:43:15;60146.72;;;-140.67;100.00
2294;BME280;1155;42.644;23.264;2023-04-25T05:45:42;60163.09;;;-140.67;100.00
2294;BME280;1155;42.644;23.264;2023-04-25T05:48:09;60138.50;;;-140.67;100.00
2294;BME280;1155;42.644;23.264;2023-04-25T05:50:36;60165.13;;;-140.67;100.00
2294;BME280;1155;42.644;23.264;2023-04-25T05:53:03;60165.13;;;-140.67;100.00
2294;BME280;1155;42.644;23.264;2023-04-25T05:55:31;60165.13;;;-140.67;100.00
2294;BME280;1155;42.644;23.264;2023-04-25T05:57:59;71017.28;;;-140.67;100.00
2294;BME280;1155;42.644;23.264;2023-04-25T06:00:26;71017.28;;;-140.68;100.00
2294;BME280;1155;42.644;23.264;2023-04-25T06:02:53;71017.28;;;-140.68;100.00
2294;BME280;1155;42.644;23.264;2023-04-25T06:05:20;71017.28;;;-140.68;100.00
2294;BME280;1155;42.644;23.264;2023-04-25T06:07:47;71017.28;;;-140.68;100.00
2294;BME280;1155;42.644;23.264;2023-04-25T06:10:17;71017.28;;;-140.68;100.00
2294;BME280;1155;42.644;23.264;2023-04-25T06:12:47;71017.28;;;-140.68;100.00
2294;BME280;1155;42.644;23.264;2023-04-25T06:15:16;71017.28;;;-140.68;100.00
2294;BME280;1155;42.644;23.264;2023-04-25T06:17:43;71017.28;;;-140.68;100.00
2294;BME280;1155;42.644;23.264;2023-04-25T06:20:10;71017.28;;;-140.68;100.00
2294;BME280;1155;42.644;23.264;2023-04-25T06:22:37;71017.28;;;-140.68;100.00
2294;BME280;1155;42.644;23.264;2023-04-25T06:25:05;71017.28;;;-140.68;100.00
2294;BME280;1155;42.644;23.264;2023-04-25T06:27:32;71017.28;;;-140.68;100.00
2294;BME280;1155;42.644;23.264;2023-04-25T06:29:59;71017.28;;;-140.68;100.00
2294;BME280;1155;42.644;23.264;2023-04-25T06:32:30;71017.28;;;-140.68;100.00
2294;BME280;1155;42.644;23.264;2023-04-25T06:34:57;71017.28;;;-140.68;100.00
2294;BME280;1155;42.644;23.264;2023-04-25T06:37:24;71017.28;;;-140.68;100.00
2294;BME280;1155;42.644;23.264;2023-04-25T06:39:51;71017.28;;;-140.68;100.00
2294;BME280;1155;42.644;23.264;2023-04-25T06:42:18;71017.28;;;-140.68;100.00
2294;BME280;1155;42.644;23.264;2023-04-25T06:44:45;71017.28;;;-140.68;100.00
2294;BME280;1155;42.644;23.264;2023-04-25T06:47:12;71017.28;;;-140.68;100.00
2294;BME280;1155;42.644;23.264;2023-04-25T06:49:42;71017.28;;;-140.68;100.00
2294;BME280;1155;42.644;23.264;2023-04-25T06:52:15;71017.28;;;-140.68;100.00
2294;BME280;1155;42.644;23.264;2023-04-25T06:54:43;71017.28;;;-140.68;100.00
2294;BME280;1155;42.644;23.264;2023-04-25T06:57:10;71017.28;;;-140.68;100.00
2294;BME280;1155;42.644;23.264;2023-04-25T06:59:37;71017.28;;;-140.68;100.00
2294;BME280;1155;42.644;23.264;2023-04-25T07:02:04;71017.28;;;-140.68;100.00
2294;BME280;1155;42.644;23.264;2023-04-25T07:04:32;71017.28;;;-140.68;100.00
2294;BME280;1155;42.644;23.264;2023-04-25T07:07:01;71017.28;;;-140.68;100.00
2294;BME280;1155;42.644;23.264;2023-04-25T07:09:31;71017.28;;;-140.68;100.00
2294;BME280;1155;42.644;23.264;2023-04-25T07:11:59;71017.28;;;-140.68;100.00
2294;BME280;1155;42.644;23.264;2023-04-25T07:14:26;71017.28;;;-140.68;100.00
2294;BME280;1155;42.644;23.264;2023-04-25T07:16:54;71017.28;;;-140.68;100.00
2294;BME280;1155;42.644;23.264;2023-04-25T07:19:22;71017.28;;;-140.68;100.00
2294;BME280;1155;42.644;23.264;2023-04-25T07:21:51;71017.28;;;-140.68;100.00
2294;BME280;1155;42.644;23.264;2023-04-25T07:24:20;71017.28;;;-140.68;100.00
2294;BME280;1155;42.644;23.264;2023-04-25T07:26:46;71017.28;;;-140.68;100.00
2294;BME280;1155;42.644;23.264;2023-04-25T07:29:13;71017.28;;;-140.68;100.00
2294;BME280;1155;42.644;23.264;2023-04-25T07:31:40;71017.28;;;-140.68;100.00
2294;BME280;1155;42.644;23.264;2023-04-25T07:34:07;71017.28;;;-140.68;100.00
2294;BME280;1155;42.644;23.264;2023-04-25T07:36:34;71017.28;;;-140.68;100.00
2294;BME280;1155;42.644;23.264;2023-04-25T07:39:01;71017.28;;;-140.68;100.00
2294;BME280;1155;42.644;23.264;2023-04-25T07:41:29;71017.28;;;-140.68;100.00
2294;BME280;1155;42.644;23.264;2023-04-25T07:43:56;71017.28;;;-140.68;100.00
2294;BME280;1155;42.644;23.264;2023-04-25T07:46:23;71017.28;;;-140.68;100.00
2294;BME280;1155;42.644;23.264;2023-04-25T07:48:50;71017.28;;;-140.68;100.00
2294;BME280;1155;42.644;23.264;2023-04-25T07:51:17;71017.28;;;-140.68;100.00
2294;BME280;1155;42.644;23.264;2023-04-25T07:53:45;71017.28;;;-140.68;100.00
2294;BME280;1155;42.644;23.264;2023-04-25T07:56:12;71017.28;;;-140.68;100.00
2294;BME280;1155;42.644;23.264;2023-04-25T07:58:40;71017.28;;;-140.68;100.00
2294;BME280;1155;42.644;23.264;2023-04-25T08:01:10;71017.28;;;-140.68;100.00
2294;BME280;1155;42.644;23.264;2023-04-25T08:03:38;71017.28;;;-140.68;100.00
2294;BME280;1155;42.644;23.264;2023-04-25T08:06:05;71017.28;;;-140.68;100.00
2294;BME280;1155;42.644;23.264;2023-04-25T08:08:31;71017.28;;;-140.68;100.00
2294;BME280;1155;42.644;23.264;2023-04-25T08:10:59;71017.28;;;-140.68;100.00
2294;BME280;1155;42.644;23.264;2023-04-25T08:13:25;71017.28;;;-140.68;100.00
2294;BME280;1155;42.644;23.264;2023-04-25T08:15:54;71017.28;;;-140.68;100.00
2294;BME280;1155;42.644;23.264;2023-04-25T08:18:21;71017.28;;;-140.68;100.00
2294;BME280;1155;42.644;23.264;2023-04-25T08:20:48;71017.28;;;-140.68;100.00
2294;BME280;1155;42.644;23.264;2023-04-25T08:23:15;71017.28;;;-140.68;100.00
2294;BME280;1155;42.644;23.264;2023-04-25T08:25:42;71017.28;;;-140.68;100.00
2294;BME280;1155;42.644;23.264;2023-04-25T08:28:09;71017.28;;;-140.68;100.00
2294;BME280;1155;42.644;23.264;2023-04-25T08:30:36;71017.28;;;-140.68;100.00
2294;BME280;1155;42.644;23.264;2023-04-25T08:33:05;71017.28;;;-140.68;100.00
2294;BME280;1155;42.644;23.264;2023-04-25T08:35:32;71017.28;;;-140.68;100.00
2294;BME280;1155;42.644;23.264;2023-04-25T08:38:01;71017.28;;;-140.68;100.00
2294;BME280;1155;42.644;23.264;2023-04-25T08:40:28;71017.28;;;-140.68;100.00
2294;BME280;1155;42.644;23.264;2023-04-25T08:42:56;71017.28;;;-140.68;100.00
2294;BME280;1155;42.644;23.264;2023-04-25T08:45:24;71017.28;;;-140.68;100.00
2294;BME280;1155;42.644;23.264;2023-04-25T08:47:53;71017.28;;;-140.68;100.00
2294;BME280;1155;42.644;23.264;2023-04-25T08:50:23;71017.28;;;-140.68;100.00
2294;BME280;1155;42.644;23.264;2023-04-25T08:52:53;71017.28;;;-140.68;100.00
2294;BME280;1155;42.644;23.264;2023-04-25T08:55:21;71017.28;;;-140.68;100.00
2294;BME280;1155;42.644;23.264;2023-04-25T08:57:49;71017.28;;;-140.68;100.00
2294;BME280;1155;42.644;23.264;2023-04-25T09:00:18;71017.28;;;-140.68;100.00
2294;BME280;1155;42.644;23.264;2023-04-25T09:02:46;71017.28;;;-140.68;100.00
2294;BME280;1155;42.644;23.264;2023-04-25T09:05:14;71017.28;;;-140.68;100.00
2294;BME280;1155;42.644;23.264;2023-04-25T09:07:42;71017.28;;;-140.68;100.00
2294;BME280;1155;42.644;23.264;2023-04-25T09:10:09;71017.28;;;-140.68;100.00
2294;BME280;1155;42.644;23.264;2023-04-25T09:12:36;71017.28;;;-140.68;100.00
2294;BME280;1155;42.644;23.264;2023-04-25T09:15:05;71017.28;;;-140.68;100.00
2294;BME280;1155;42.644;23.264;2023-04-25T09:17:32;71017.28;;;-140.68;100.00
2294;BME280;1155;42.644;23.264;2023-04-25T09:20:09;71017.28;;;-140.68;100.00
2294;BME280;1155;42.644;23.264;2023-04-25T09:22:37;71017.28;;;-140.68;100.00
2294;BME280;1155;42.644;23.264;2023-04-25T09:25:08;71017.28;;;-140.68;100.00
2294;BME280;1155;42.644;23.264;2023-04-25T09:27:35;71017.28;;;-140.68;100.00
2294;BME280;1155;42.644;23.264;2023-04-25T09:30:03;71017.28;;;-140.68;100.00
2294;BME280;1155;42.644;23.264;2023-04-25T09:32:30;71017.28;;;-140.68;100.00
2294;BME280;1155;42.644;23.264;2023-04-25T09:34:57;71017.28;;;-140.68;100.00
2294;BME280;1155;42.644;23.264;2023-04-25T09:37:26;71017.28;;;-140.68;100.00
2294;BME280;1155;42.644;23.264;2023-04-25T09:39:54;71017.28;;;-140.68;100.00
2294;BME280;1155;42.644;23.264;2023-04-25T09:42:23;71017.28;;;-140.68;100.00
2294;BME280;1155;42.644;23.264;2023-04-25T09:44:52;71017.28;;;-140.68;100.00
2294;BME280;1155;42.644;23.264;2023-04-25T09:47:20;71017.28;;;-140.68;100.00
2294;BME280;1155;42.644;23.264;2023-04-25T09:49:49;71017.28;;;-140.68;100.00
2294;BME280;1155;42.644;23.264;2023-04-25T09:52:18;71017.28;;;-140.68;100.00
2294;BME280;1155;42.644;23.264;2023-04-25T09:54:46;71017.28;;;-140.68;100.00
2294;BME280;1155;42.644;23.264;2023-04-25T09:57:14;71017.28;;;-140.68;100.00
2294;BME280;1155;42.644;23.264;2023-04-25T09:59:45;71017.28;;;-140.68;100.00
2294;BME280;1155;42.644;23.264;2023-04-25T10:02:14;71017.28;;;-140.68;100.00
2294;BME280;1155;42.644;23.264;2023-04-25T10:04:41;71017.28;;;-140.68;100.00
2294;BME280;1155;42.644;23.264;2023-04-25T10:07:11;71017.28;;;-140.68;100.00
2294;BME280;1155;42.644;23.264;2023-04-25T10:09:39;71017.28;;;-140.68;100.00
2294;BME280;1155;42.644;23.264;2023-04-25T10:12:07;71017.28;;;-140.68;100.00
2294;BME280;1155;42.644;23.264;2023-04-25T10:14:34;71017.28;;;-140.68;100.00
2294;BME280;1155;42.644;23.264;2023-04-25T10:17:03;71017.28;;;-140.68;100.00
2294;BME280;1155;42.644;23.264;2023-04-25T10:19:31;71017.28;;;-140.68;100.00
2294;BME280;1155;42.644;23.264;2023-04-25T10:22:05;71017.28;;;-140.68;100.00
2294;BME280;1155;42.644;23.264;2023-04-25T10:24:35;71017.28;;;-140.68;100.00
2294;BME280;1155;42.644;23.264;2023-04-25T10:27:02;71017.28;;;-140.68;100.00
2294;BME280;1155;42.644;23.264;2023-04-25T10:29:29;71017.28;;;-140.68;100.00
2294;BME280;1155;42.644;23.264;2023-04-25T10:31:56;71017.28;;;-140.68;100.00
2294;BME280;1155;42.644;23.264;2023-04-25T10:34:38;71017.28;;;-140.68;100.00
2294;BME280;1155;42.644;23.264;2023-04-25T10:37:08;71017.28;;;-140.68;100.00
2294;BME280;1155;42.644;23.264;2023-04-25T10:39:35;71017.28;;;-140.68;100.00
2294;BME280;1155;42.644;23.264;2023-04-25T10:42:05;71017.28;;;-140.68;100.00
2294;BME280;1155;42.644;23.264;2023-04-25T10:44:33;71017.28;;;-140.68;100.00
2294;BME280;1155;42.644;23.264;2023-04-25T10:47:01;71017.28;;;-140.68;100.00
2294;BME280;1155;42.644;23.264;2023-04-25T10:49:33;71017.28;;;-140.68;100.00
2294;BME280;1155;42.644;23.264;2023-04-25T10:52:17;71017.28;;;-140.68;100.00
2294;BME280;1155;42.644;23.264;2023-04-25T10:54:52;71017.28;;;-140.68;100.00
2294;BME280;1155;42.644;23.264;2023-04-25T10:57:29;71017.28;;;-140.68;100.00
2294;BME280;1155;42.644;23.264;2023-04-25T11:00:00;71017.28;;;-140.68;100.00
2294;BME280;1155;42.644;23.264;2023-04-25T11:02:30;71017.28;;;-140.68;100.00
2294;BME280;1155;42.644;23.264;2023-04-25T11:04:59;71017.28;;;-140.68;100.00
2294;BME280;1155;42.644;23.264;2023-04-25T11:07:34;71017.28;;;-140.68;100.00
2294;BME280;1155;42.644;23.264;2023-04-25T11:10:05;71017.28;;;-140.68;100.00
2294;BME280;1155;42.644;23.264;2023-04-25T11:12:32;71017.28;;;-140.68;100.00
2294;BME280;1155;42.644;23.264;2023-04-25T11:15:00;71017.28;;;-140.68;100.00
2294;BME280;1155;42.644;23.264;2023-04-25T11:17:28;71017.28;;;-140.68;100.00
2294;BME280;1155;42.644;23.264;2023-04-25T11:19:55;71017.28;;;-140.68;100.00
2294;BME280;1155;42.644;23.264;2023-04-25T11:22:24;71017.28;;;-140.68;100.00
2294;BME280;1155;42.644;23.264;2023-04-25T11:24:50;71017.28;;;-140.68;100.00
2294;BME280;1155;42.644;23.264;2023-04-25T11:27:17;71017.28;;;-140.68;100.00
2294;BME280;1155;42.644;23.264;2023-04-25T11:29:44;71017.28;;;-140.68;100.00
2294;BME280;1155;42.644;23.264;2023-04-25T11:32:14;71017.28;;;-140.68;100.00
2294;BME280;1155;42.644;23.264;2023-04-25T11:34:44;71017.28;;;-140.68;100.00
2294;BME280;1155;42.644;23.264;2023-04-25T11:37:11;71017.28;;;-140.68;100.00
2294;BME280;1155;42.644;23.264;2023-04-25T11:39:44;71017.28;;;-140.68;100.00
2294;BME280;1155;42.644;23.264;2023-04-25T11:42:12;71017.28;;;-140.68;100.00
2294;BME280;1155;42.644;23.264;2023-04-25T11:44:39;71017.28;;;-140.68;100.00
2294;BME280;1155;42.644;23.264;2023-04-25T11:47:06;71017.28;;;-140.68;100.00
2294;BME280;1155;42.644;23.264;2023-04-25T11:49:33;71017.28;;;-140.68;100.00
2294;BME280;1155;42.644;23.264;2023-04-25T11:52:01;71017.28;;;-140.68;100.00
2294;BME280;1155;42.644;23.264;2023-04-25T11:54:27;71017.28;;;-140.68;100.00
2294;BME280;1155;42.644;23.264;2023-04-25T11:56:56;71017.28;;;-140.68;100.00
2294;BME280;1155;42.644;23.264;2023-04-25T11:59:24;71017.28;;;-140.68;100.00
2294;BME280;1155;42.644;23.264;2023-04-25T12:01:52;71017.28;;;-140.68;100.00
2294;BME280;1155;42.644;23.264;2023-04-25T12:04:20;71017.28;;;-140.68;100.00
2294;BME280;1155;42.644;23.264;2023-04-25T12:06:49;71017.28;;;-140.68;100.00
2294;BME280;1155;42.644;23.264;2023-04-25T12:09:18;71017.28;;;-140.68;100.00
2294;BME280;1155;42.644;23.264;2023-04-25T12:11:47;71017.28;;;-140.68;100.00
2294;BME280;1155;42.644;23.264;2023-04-25T12:14:22;71017.28;;;-140.68;100.00
2294;BME280;1155;42.644;23.264;2023-04-25T12:16:49;71017.28;;;-140.68;100.00
2294;BME280;1155;42.644;23.264;2023-04-25T12:19:18;71017.28;;;-140.68;100.00
2294;BME280;1155;42.644;23.264;2023-04-25T12:21:46;71017.28;;;-140.68;100.00
2294;BME280;1155;42.644;23.264;2023-04-25T12:24:14;71017.28;;;-140.68;100.00
2294;BME280;1155;42.644;23.264;2023-04-25T12:26:49;71017.28;;;-140.68;100.00
2294;BME280;1155;42.644;23.264;2023-04-25T12:29:19;71017.28;;;-140.68;100.00
2294;BME280;1155;42.644;23.264;2023-04-25T12:31:48;71017.28;;;-140.68;100.00
2294;BME280;1155;42.644;23.264;2023-04-25T12:34:16;71017.28;;;-140.68;100.00
2294;BME280;1155;42.644;23.264;2023-04-25T12:36:43;71017.28;;;-140.68;100.00
2294;BME280;1155;42.644;23.264;2023-04-25T12:39:38;71017.28;;;-140.68;100.00
2294;BME280;1155;42.644;23.264;2023-04-25T12:42:05;71017.28;;;-140.68;100.00
2294;BME280;1155;42.644;23.264;2023-04-25T12:44:33;71017.28;;;-140.68;100.00
2294;BME280;1155;42.644;23.264;2023-04-25T12:47:01;71017.28;;;-140.68;100.00